• Join FlightAware (Why Join?)
  • Login
  • US Flag 
01:47AM EST


 

Airport Tracker/Info


-or-


 

Live Flight TrackerFlight Track Log ✈ DAL1562 ✈ 20-Apr-2013 ✈ KPHL - KDTW

Flight Track Log - Related Links

Times and Time Zones

All times are in EDT time to prevent confusion due to time zone crossing. See the DAL1562 flight status page for this flight to view local times or setup timezone preferences in your user account.

Time Position Orientation Groundspeed Altitude Reporting Facility
EDT Latitude Longitude Course Direction KTS MPH feet Rate Location/Type
04:41PM 39.8603 -75.2769 270° West 145 167 1,100  Level FAA TRACON SMA TRACON (SMA)
04:42PM 39.8567 -75.2922 253° West 146 168 1,500 1,320 Climbing FAA TRACON SMA TRACON (SMA)
04:42PM 39.8519 -75.3136 254° West 204 235 2,000 2,700 Climbing FAA TRACON SMA TRACON (SMA)
04:42PM 39.8450 -75.3439 253° West 228 262 3,300 3,600 Climbing FAA TRACON SMA TRACON (SMA)
04:43PM 39.8400 -75.3664 254° West 229 264 4,400 3,720 Climbing FAA TRACON SMA TRACON (SMA)
04:43PM 39.8378 -75.3950 264° West 246 283 5,800 4,200 Climbing FAA TRACON SMA TRACON (SMA)
04:43PM 39.8400 -75.4300 275° West 256 295 7,200 4,020 Climbing FAA TRACON SMA TRACON (SMA)
04:44PM 39.9036 -75.6143 288° West  Level FlightAware Approximate
04:44PM 39.8422 -75.4581 276° West 252 290 8,500  Level FAA TRACON SMA TRACON (SMA)
04:44PM 39.8447 -75.4850 277° West 245 282 9,500 2,220 Climbing FAA TRACON SMA TRACON (SMA)
04:44PM 39.8481 -75.5200 277° West 254 292 10,000 540 Climbing FAA TRACON SMA TRACON (SMA)
04:45PM 39.9044 -75.7402 258° West  Level FlightAware Approximate
04:45PM 39.8508 -75.5503 277° West 273 314 9,900  Level FAA TRACON SMA TRACON (SMA)
04:45PM 39.8536 -75.5794 277° West 273 314 10,000 120 Climbing FAA TRACON SMA TRACON (SMA)
04:45PM 39.8553 -75.6122 274° West 280 322 10,000 900 Level FAA TRACON SMA TRACON (SMA)
04:46PM 39.9001 -75.8699 270° West  Level FlightAware Approximate
04:46PM 39.8589 -75.6550 276° West 307 353 10,600  Level FAA TRACON SMA TRACON (SMA)
04:46PM 39.8625 -75.6900 278° West 329 379 11,300 2,700 Climbing FAA TRACON SMA TRACON (SMA)
04:46PM 39.8664 -75.7275 278° West 329 379 12,400 3,300 Climbing FAA TRACON SMA TRACON (SMA)
04:47PM 39.8717 -75.7742 278° West 332 382 13,500 3,000 Climbing FAA TRACON SMA TRACON (SMA)
04:47PM 39.8742 -75.8094 275° West 337 388 14,400 2,580 Climbing FAA TRACON SMA TRACON (SMA)
04:47PM 39.8772 -75.8494 276° West 341 392 15,300 3,120 Climbing FAA TRACON SMA TRACON (SMA)
04:48PM 39.8814 -75.8978 276° West 345 397 16,500 3,180 Climbing FAA TRACON SMA TRACON (SMA)
04:48PM 39.8847 -75.9364 276° West 347 399 17,400 2,100 Climbing FAA TRACON SMA TRACON (SMA)
04:48PM 39.8889 -75.9744 278° West 348 400 17,900 1,920 Climbing FAA TRACON SMA TRACON (SMA)
04:51PM 39.9089 -76.3000 275° West 372 428 22,900 1,800 Climbing New York Center
04:52PM 39.9169 -76.4358 274° West 372 428 24,200 1,560 Climbing New York Center
04:53PM 39.9208 -76.5717 272° West 377 434 26,000 1,680 Climbing New York Center
04:54PM 39.9286 -76.7103 274° West 382 440 27,600 1,800 Climbing New York Center
04:55PM 39.9531 -76.8450 283° West 387 445 29,600 1,800 Climbing New York Center
04:56PM 39.9769 -76.9828 283° West 392 451 31,300 1,440 Climbing New York Center
04:57PM 40.0014 -77.1150 284° West 392 451 32,600 1,020 Climbing New York Center
04:58PM 40.0414 -77.3233 284° West 397 457 34,000 540 Climbing Cleveland Center
04:59PM 40.0678 -77.4522 285° West 384 442 34,000  Level Cleveland Center
05:00PM 40.0903 -77.5842 283° West 374 430 34,000  Level Cleveland Center
05:01PM 40.1144 -77.7161 284° West 374 430 34,000  Level Cleveland Center
05:02PM 40.1364 -77.8456 283° West 374 430 34,000  Level Cleveland Center
05:03PM 40.1353 -77.9706 269° West 374 430 34,000  Level Cleveland Center
05:04PM 40.1528 -78.1058 280° West 374 430 34,000  Level Cleveland Center
05:05PM 40.1806 -78.2406 285° West 379 436 34,000  Level Cleveland Center
05:06PM 40.2083 -78.3756 285° West 385 443 34,000  Level Cleveland Center
05:07PM 40.2358 -78.5106 285° West 391 450 34,000  Level Cleveland Center
05:08PM 40.2633 -78.6431 285° West 391 450 34,000  Level Cleveland Center
05:09PM 40.2906 -78.7758 285° West 391 450 34,000  Level Cleveland Center
05:10PM 40.3175 -78.9083 285° West 386 444 34,000  Level Cleveland Center
05:11PM 40.3444 -79.0439 285° West 386 444 34,000  Level Cleveland Center
05:12PM 40.3711 -79.1769 285° West 386 444 34,000 -360 Level Cleveland Center
05:13PM 40.4022 -79.3261 285° West 386 444 33,300 -1,200 Descending Cleveland Center
05:14PM 40.4283 -79.4458 286° West 386 444 31,600 -1,260 Descending Cleveland Center
05:15PM 40.4567 -79.5844 285° West 386 444 30,800 -720 Descending Cleveland Center
05:16PM 40.4872 -79.7314 285° West 391 450 30,200 -420 Descending Cleveland Center
05:17PM 40.5111 -79.8622 284° West 386 444 30,000 -120 Descending Cleveland Center
05:18PM 40.5367 -79.9931 284° West 380 437 30,000  Level Cleveland Center
05:19PM 40.5561 -80.1131 282° West 372 428 30,000  Level Cleveland Center
05:20PM 40.5817 -80.2442 284° West 372 428 30,000  Level Cleveland Center
05:21PM 40.6089 -80.3889 284° West 372 428 30,000  Level Cleveland Center
05:22PM 40.6319 -80.5203 283° West 372 428 30,000  Level Cleveland Center
05:23PM 40.6572 -80.6542 284° West 372 428 30,000  Level Cleveland Center
05:24PM 40.6944 -80.7747 292° West 372 428 30,000  Level Cleveland Center
05:25PM 40.7525 -80.8900 304° West 372 428 30,000  Level Cleveland Center
05:26PM 40.8106 -81.0083 303° West 372 428 30,000  Level Cleveland Center
05:27PM 40.8664 -81.1267 302° West 382 440 30,000  Level Cleveland Center
05:28PM 40.9219 -81.2453 302° West 382 440 30,000  Level Cleveland Center
05:29PM 40.9714 -81.3475 303° West 388 447 30,000  Level Cleveland Center
05:30PM 41.0311 -81.4694 303° West 388 447 30,000 -180 Level Cleveland Center
05:31PM 41.0842 -81.5858 301° West 383 441 29,700 -600 Descending Cleveland Center
05:32PM 41.1497 -81.7136 304° West 383 441 28,800 -720 Descending Cleveland Center
05:33PM 41.2028 -81.8306 301° West 383 441 28,300 -720 Descending Cleveland Center
05:34PM 41.2556 -81.9447 302° West 378 435 27,400 -1,380 Descending Cleveland Center
05:35PM 41.3083 -82.0564 302° West 372 428 25,600 -1,860 Descending Cleveland Center
05:36PM 41.3569 -82.1628 301° West 348 400 23,700 -1,800 Descending Cleveland Center
05:37PM 41.4161 -82.2583 310° West 341 392 22,100 -1,620 Descending Cleveland Center
05:38PM 41.4650 -82.3428 308° West 335 386 20,500 -1,740 Descending Cleveland Center
05:39PM 41.5197 -82.4331 309° West 317 365 18,700 -1,800 Descending Cleveland Center
05:40PM 41.5583 -82.4978 309° West 303 349 17,600 -1,740 Descending Cleveland Center
05:40PM 41.5725 -82.5233 307° West 301 346 17,000 -2,100 Descending Cleveland Center
05:41PM 41.6069 -82.5797 309° West 305 351 15,700 -1,920 Descending Cleveland Center
05:41PM 41.6250 -82.6111 308° West 306 352 15,100 -1,680 Descending Cleveland Center
05:42PM 41.6617 -82.6678 311° West 312 359 14,000 -2,040 Descending Cleveland Center
05:42PM 41.6778 -82.7044 300° West 306 352 13,100 -1,920 Descending Cleveland Center
05:43PM 41.7142 -82.7583 312° West 307 353 12,100 -1,140 Descending Cleveland Center
05:43PM 41.7322 -82.7897 308° West 306 352 12,000 -120 Descending Cleveland Center
05:44PM 41.7833 -82.8500 319° Northwest 312 359 12,000  Level Cleveland Center
05:44PM 41.7956 -82.8642 319° Northwest 306 352 12,000  Level Cleveland Center
05:45PM 41.8486 -82.9247 320° Northwest 309 356 12,000  Level Cleveland Center
05:45PM 41.8586 -82.9389 313° West 306 352 12,000  Level Cleveland Center
05:46PM 41.9114 -83.0050 317° Northwest 309 356 12,000  Level Cleveland Center
05:46PM 41.9258 -83.0197 323° Northwest 311 358 12,000 -900 Level Cleveland Center
05:47PM 41.9703 -83.0744 318° Northwest 307 353 11,200 -1,020 Descending Cleveland Center
05:47PM 41.9867 -83.0944 318° Northwest 311 358 11,000 -180 Descending Cleveland Center
05:48PM 42.0353 -83.1553 317° Northwest 236 272 11,000  Level Cleveland Center
05:49PM 42.0781 -83.2072 318° Northwest 204 235 11,000  Level Cleveland Center
05:49PM 42.0842 -83.2103 340° North 245 282 11,000 -240 Level Cleveland Center
05:50PM 42.1361 -83.2208 351° North 227 261 10,800 -1,200 Descending Cleveland Center
05:51PM 42.2075 -83.1958 15° North 239 275 8,800 -1,560 Descending Cleveland Center
05:52PM 42.2603 -83.1586 28° Northeast 232 267 7,500 -1,500 Descending Cleveland Center
05:53PM 42.3194 -83.1303 19° North 224 258 5,900 -1,560 Descending Cleveland Center
05:54PM 42.3514 -83.1933 304° West 197 227 4,400 -1,260 Descending Cleveland Center
05:55PM 42.3144 -83.2619 234° Southwest 176 203 3,100 -1,080 Descending Cleveland Center